Oil, Indiana
Current Conditions -  °F | °C
As of 4:35 PM on Friday 24 Oct 2014 (Local Time) from KHNB Reporting Station
Scattered Clouds Scattered Clouds  
Wind Chill: 66°   Ceiling: Unl
Heat Index: 66°   Visibility: 10mi
Dew Point: 52°   Wind: 8mph
Humidity: 60%   Direction: 270°W
Pressure: 30.05"   Gusts: NA
Location:  38.232°N, 86.6107°W
Report Text: KHNB 242135Z AUTO 27007KT 10SM SCT043 19/11 A3005 RMK AO1
Loading
Personal Weather Stations






























Interactive Weather Map
Tropical Storm Tracking
New forecast layout! Learn more

10-Day Weather Forecast

Advertisements
Track Severe Weather on mobile